Terminal Aerodrome Forecast
Issued by NWS

Home | Current Version | Previous Version | Text Only | Print | Product List | Glossary Off
Versions: 1 2 3 4 5 6 7 8 9 10 11 12 13 14 15

000
FTUS43 KBIS 201700
TAFDIK
TAF
KDIK 201735Z 2018/2118 22016G23KT P6SM SCT120
     FM201900 29021G27KT P6SM FEW250
     FM210200 27011KT P6SM SKC=

USA.gov is the U.S. government's official web portal to all federal, state and local government web resources and services.